Just Believe — WDE6179 — position and weather

sailwx.info

Track history (hours):
 
Tides and Currents Weather Stations Pressure Air Temp Water Temp Dewpoint Dewpoint Depression Visibility Wind Speed Wind Dir Waves Ship Positions

Just Believe

Owner: Just Believe LLC, Austin, TX. More information available from US FCC via Universal Licensing System and Coast Guard Vessel Documentation Center.

Last reported at 2014-Oct-11 16:09 UTC. Time now 2014-Nov-22 02:57 UTC.
Position N 39°31' W 073°24'.
Warning: this ship's position is 41 days out of date.

Length 18 m; draft 2 m.

Type: Pleasure craft. MMSI: 367376980.

Date/timePositionNaut miles runAvg speedWind from/ knotsBaromVisibWave heightAir tempDewpointWater temp
2014-Oct-11 16:09N 39°31' W 073°24'54 7.7
2014-Oct-11 09:05N 40°14' W 072°41'4 7.7
2014-Oct-11 08:33N 40°17' W 072°37'8 7.8
2014-Oct-11 07:34N 40°23' W 072°31'8 8.0
2014-Oct-11 06:33N 40°30' W 072°25'8 7.9
2014-Oct-11 05:34N 40°36' W 072°18'8 7.9
2014-Oct-11 04:34N 40°42' W 072°12'8 7.9
2014-Oct-11 03:33N 40°48' W 072°05'7 7.4
2014-Oct-11 02:34N 40°54' W 071°59'7 7.3
2014-Oct-11 01:34N 41°00' W 071°54'6 5.8
2014-Oct-11 00:33N 41°05' W 071°50'6 6.4
2014-Oct-10 23:33N 41°11' W 071°52'7 7.1
2014-Oct-10 22:34N 41°18' W 071°56'  
Track history (hours):
 
Tides and Currents Weather Stations Pressure Air Temp Water Temp Dewpoint Dewpoint Depression Visibility Wind Speed Wind Dir Waves Ship Positions

Just Believe

Owner: Just Believe LLC, Austin, TX. More information available from US FCC via Universal Licensing System and Coast Guard Vessel Documentation Center.

Last reported at 2014-Oct-11 16:09 UTC. Time now 2014-Nov-22 02:57 UTC.
Position N 39°31' W 073°24'.
Warning: this ship's position is 41 days out of date.

Length 18 m; draft 2 m.

Type: Pleasure craft. MMSI: 367376980.

Date/timePositionNaut miles runAvg speedWind from/ knotsBaromVisibWave heightAir tempDewpointWater temp
2014-Oct-11 16:09N 39°31' W 073°24'54 7.7
2014-Oct-11 09:05N 40°14' W 072°41'4 7.7
2014-Oct-11 08:33N 40°17' W 072°37'8 7.8
2014-Oct-11 07:34N 40°23' W 072°31'8 8.0
2014-Oct-11 06:33N 40°30' W 072°25'8 7.9
2014-Oct-11 05:34N 40°36' W 072°18'8 7.9
2014-Oct-11 04:34N 40°42' W 072°12'8 7.9
2014-Oct-11 03:33N 40°48' W 072°05'7 7.4
2014-Oct-11 02:34N 40°54' W 071°59'7 7.3
2014-Oct-11 01:34N 41°00' W 071°54'6 5.8
2014-Oct-11 00:33N 41°05' W 071°50'6 6.4
2014-Oct-10 23:33N 41°11' W 071°52'7 7.1
2014-Oct-10 22:34N 41°18' W 071°56'  

Dump ship's entire track history